BOX43F EHAM-EDDF
Flight info
| Callsign | BOX43F |
|---|---|
| Flight time | N/A |
| Altitude | 33000 |
| Route | EDUPO Z739 MISGO DCT DIXAT DIXAT1D |
| Aircraft | B77L/H-SDE1E2E3FGHIJ2J3J4J5M1RWXY/LB1D1 |
Departure
| Time | 2026-04-27 13:46 |
|---|---|
| Airport | Amsterdam Airport Schiphol (EHAM) |
Arrival
| Time | N/A |
|---|---|
| Airport | Frankfurt Main Airport (EDDF) |
| Time | Latitude | Longitude | Altitude | Speed | Heading |
|---|---|---|---|---|---|
| 2026-04-27 13:23 | 52.32432 | 4.74520 | 1 ft | 0 kts | 94° |
| 2026-04-27 13:38 | 52.32432 | 4.74529 | 1 ft | 0 kts | 94° |
| 2026-04-27 13:41 | 52.32431 | 4.74543 | 1 ft | 4 kts | 94° |
| 2026-04-27 13:41 | 52.32369 | 4.74645 | 1 ft | 24 kts | 163° |
| 2026-04-27 13:41 | 52.32174 | 4.74648 | 1 ft | 40 kts | 183° |
| 2026-04-27 13:41 | 52.31983 | 4.74529 | 1 ft | 32 kts | 235° |
| 2026-04-27 13:42 | 52.31991 | 4.74336 | 1 ft | 18 kts | 324° |
| 2026-04-27 13:42 | 52.32035 | 4.74118 | 1 ft | 26 kts | 275° |
| 2026-04-27 13:42 | 52.32040 | 4.73995 | 1 ft | 9 kts | 271° |
| 2026-04-27 13:42 | 52.32050 | 4.73702 | 2 ft | 42 kts | 274° |
| 2026-04-27 13:43 | 52.32170 | 4.73239 | 1 ft | 34 kts | 320° |
| 2026-04-27 13:43 | 52.32364 | 4.72978 | 1 ft | 37 kts | 320° |
| 2026-04-27 13:43 | 52.32561 | 4.72690 | 1 ft | 40 kts | 319° |
| 2026-04-27 13:43 | 52.32803 | 4.72288 | 1 ft | 59 kts | 311° |
| 2026-04-27 13:44 | 52.32995 | 4.71864 | 1 ft | 26 kts | 265° |
| 2026-04-27 13:44 | 52.33092 | 4.71495 | 1 ft | 48 kts | 311° |
| 2026-04-27 13:44 | 52.33247 | 4.71211 | 1 ft | 19 kts | 311° |
| 2026-04-27 13:44 | 52.33252 | 4.71202 | 1 ft | 0 kts | 311° |
| 2026-04-27 13:45 | 52.33255 | 4.71197 | 1 ft | 7 kts | 311° |
| 2026-04-27 13:45 | 52.33359 | 4.70992 | 1 ft | 33 kts | 303° |
| 2026-04-27 13:45 | 52.33569 | 4.70948 | 2 ft | 60 kts | 4° |
| 2026-04-27 13:46 | 52.34371 | 4.71019 | 12 ft | 167 kts | 3° |
| 2026-04-27 13:46 | 52.35674 | 4.71161 | 840 ft | 195 kts | 6° |
| 2026-04-27 13:46 | 52.37002 | 4.71349 | 2286 ft | 188 kts | 8° |
| 2026-04-27 13:46 | 52.38297 | 4.71698 | 3190 ft | 200 kts | 7° |
| 2026-04-27 13:47 | 52.39776 | 4.71765 | 3591 ft | 228 kts | 0° |
| 2026-04-27 13:47 | 52.41470 | 4.71805 | 4141 ft | 250 kts | 2° |
| 2026-04-27 13:47 | 52.43150 | 4.72452 | 5018 ft | 253 kts | 30° |
| 2026-04-27 13:47 | 52.44576 | 4.74135 | 5883 ft | 255 kts | 33° |
| 2026-04-27 13:48 | 52.46133 | 4.75664 | 6738 ft | 263 kts | 28° |
| 2026-04-27 13:48 | 52.47624 | 4.77429 | 7492 ft | 271 kts | 50° |
| 2026-04-27 13:48 | 52.48343 | 4.80276 | 8328 ft | 280 kts | 84° |
| 2026-04-27 13:48 | 52.48383 | 4.83485 | 9119 ft | 285 kts | 88° |
| 2026-04-27 13:49 | 52.48497 | 4.86796 | 10006 ft | 293 kts | 85° |
| 2026-04-27 13:49 | 52.48463 | 4.90137 | 10742 ft | 297 kts | 104° |
| 2026-04-27 13:49 | 52.47506 | 4.93232 | 11122 ft | 320 kts | 134° |
| 2026-04-27 13:49 | 52.45702 | 4.95469 | 11329 ft | 338 kts | 150° |
| 2026-04-27 13:50 | 52.43617 | 4.97599 | 11520 ft | 366 kts | 148° |
| 2026-04-27 13:50 | 52.41452 | 4.99996 | 12182 ft | 381 kts | 147° |
| 2026-04-27 13:50 | 52.39255 | 5.02520 | 13090 ft | 388 kts | 146° |
| 2026-04-27 13:50 | 52.37037 | 5.05090 | 14083 ft | 393 kts | 146° |
| 2026-04-27 13:51 | 52.34819 | 5.07657 | 14921 ft | 398 kts | 147° |
| 2026-04-27 13:51 | 52.32608 | 5.10397 | 15636 ft | 402 kts | 139° |
| 2026-04-27 13:51 | 52.30652 | 5.13808 | 16291 ft | 414 kts | 131° |
| 2026-04-27 13:51 | 52.28807 | 5.17482 | 17096 ft | 421 kts | 131° |
| 2026-04-27 13:52 | 52.26919 | 5.21123 | 17903 ft | 426 kts | 133° |
| 2026-04-27 13:52 | 52.24937 | 5.24774 | 18675 ft | 432 kts | 134° |
| 2026-04-27 13:52 | 52.22968 | 5.28539 | 19368 ft | 438 kts | 129° |
| 2026-04-27 13:52 | 52.21175 | 5.32599 | 20082 ft | 443 kts | 126° |
| 2026-04-27 13:53 | 52.18285 | 5.39611 | 21264 ft | 451 kts | 126° |
| 2026-04-27 13:53 | 52.15911 | 5.45241 | 22156 ft | 457 kts | 127° |
| 2026-04-27 13:53 | 52.14063 | 5.49513 | 22835 ft | 463 kts | 127° |
| 2026-04-27 13:54 | 52.12821 | 5.52353 | 23272 ft | 466 kts | 128° |
| 2026-04-27 13:54 | 52.10924 | 5.56676 | 23917 ft | 471 kts | 128° |
| 2026-04-27 13:54 | 52.08998 | 5.61064 | 24418 ft | 476 kts | 128° |
| 2026-04-27 13:54 | 52.07080 | 5.65428 | 24961 ft | 481 kts | 128° |
| 2026-04-27 13:55 | 52.05093 | 5.69847 | 25503 ft | 484 kts | 131° |
| 2026-04-27 13:55 | 52.02924 | 5.73978 | 26033 ft | 486 kts | 135° |
| 2026-04-27 13:55 | 52.00622 | 5.78054 | 26570 ft | 490 kts | 135° |
| 2026-04-27 13:55 | 51.98343 | 5.82181 | 27168 ft | 492 kts | 135° |
| 2026-04-27 13:56 | 51.96077 | 5.86389 | 27271 ft | 493 kts | 134° |
| 2026-04-27 13:56 | 51.93841 | 5.90571 | 27262 ft | 490 kts | 134° |
| 2026-04-27 13:56 | 51.91629 | 5.94704 | 27278 ft | 494 kts | 134° |
| 2026-04-27 13:56 | 51.89335 | 5.98970 | 27416 ft | 507 kts | 134° |
| 2026-04-27 13:57 | 51.86992 | 6.03316 | 27694 ft | 515 kts | 134° |
| 2026-04-27 13:57 | 51.84616 | 6.07711 | 28066 ft | 520 kts | 135° |
| 2026-04-27 13:57 | 51.82241 | 6.12066 | 28580 ft | 521 kts | 135° |
| 2026-04-27 13:57 | 51.79834 | 6.16461 | 29236 ft | 519 kts | 135° |
| 2026-04-27 13:58 | 51.77434 | 6.20840 | 29925 ft | 518 kts | 135° |
| 2026-04-27 13:58 | 51.75043 | 6.25203 | 30542 ft | 517 kts | 135° |
| 2026-04-27 13:58 | 51.72692 | 6.29495 | 31086 ft | 516 kts | 135° |
| 2026-04-27 13:58 | 51.70312 | 6.33836 | 31630 ft | 514 kts | 135° |
| 2026-04-27 13:59 | 51.67944 | 6.38151 | 32162 ft | 513 kts | 135° |
| 2026-04-27 13:59 | 51.65566 | 6.42477 | 32695 ft | 511 kts | 136° |
| 2026-04-27 13:59 | 51.63232 | 6.46710 | 33197 ft | 511 kts | 136° |
| 2026-04-27 14:00 | 51.58489 | 6.55284 | 33248 ft | 514 kts | 136° |
| 2026-04-27 14:00 | 51.53762 | 6.63816 | 33226 ft | 509 kts | 136° |
| 2026-04-27 14:01 | 51.49034 | 6.72319 | 33231 ft | 508 kts | 136° |
| 2026-04-27 14:01 | 51.44327 | 6.80760 | 33246 ft | 508 kts | 136° |
| 2026-04-27 14:02 | 51.39643 | 6.89226 | 33231 ft | 511 kts | 133° |
| 2026-04-27 14:02 | 51.35151 | 6.97884 | 33211 ft | 491 kts | 139° |
| 2026-04-27 14:02 | 51.32696 | 7.01535 | 33227 ft | 472 kts | 143° |
| 2026-04-27 14:03 | 51.30291 | 7.04975 | 33211 ft | 457 kts | 143° |
| 2026-04-27 14:03 | 51.27968 | 7.08336 | 33207 ft | 443 kts | 143° |
| 2026-04-27 14:03 | 51.25733 | 7.11599 | 33205 ft | 428 kts | 143° |
| 2026-04-27 14:04 | 51.21410 | 7.17931 | 33229 ft | 421 kts | 143° |
| 2026-04-27 14:04 | 51.17084 | 7.24256 | 33224 ft | 422 kts | 143° |
| 2026-04-27 14:05 | 51.12735 | 7.30611 | 33221 ft | 423 kts | 143° |
| 2026-04-27 14:05 | 51.08414 | 7.36915 | 33217 ft | 424 kts | 143° |
| 2026-04-27 14:06 | 51.04068 | 7.43297 | 33210 ft | 424 kts | 141° |
| 2026-04-27 14:06 | 50.99862 | 7.49828 | 33215 ft | 424 kts | 140° |
| 2026-04-27 14:07 | 50.95672 | 7.56348 | 33211 ft | 422 kts | 143° |
| 2026-04-27 14:07 | 50.91029 | 7.61790 | 32863 ft | 412 kts | 152° |
| 2026-04-27 14:07 | 50.88662 | 7.64341 | 32492 ft | 413 kts | 151° |
| 2026-04-27 14:08 | 50.86268 | 7.66929 | 31752 ft | 421 kts | 151° |
| 2026-04-27 14:08 | 50.83817 | 7.69599 | 30741 ft | 435 kts | 150° |
| 2026-04-27 14:08 | 50.81319 | 7.72348 | 29628 ft | 433 kts | 150° |
| 2026-04-27 14:08 | 50.78865 | 7.75074 | 28485 ft | 427 kts | 149° |
| 2026-04-27 14:09 | 50.76477 | 7.77735 | 27421 ft | 421 kts | 149° |
| 2026-04-27 14:09 | 50.74088 | 7.80398 | 26372 ft | 416 kts | 149° |
| 2026-04-27 14:09 | 50.71728 | 7.83021 | 25362 ft | 411 kts | 149° |
| 2026-04-27 14:09 | 50.69427 | 7.85573 | 24413 ft | 406 kts | 149° |
| 2026-04-27 14:10 | 50.67126 | 7.88121 | 23390 ft | 401 kts | 148° |
| 2026-04-27 14:10 | 50.64856 | 7.90632 | 22294 ft | 396 kts | 148° |
| 2026-04-27 14:10 | 50.62606 | 7.93114 | 21226 ft | 392 kts | 148° |
| 2026-04-27 14:10 | 50.60382 | 7.95568 | 20195 ft | 387 kts | 148° |
| 2026-04-27 14:11 | 50.58197 | 7.97973 | 19209 ft | 382 kts | 147° |
| 2026-04-27 14:11 | 50.56038 | 8.00348 | 18215 ft | 377 kts | 147° |
| 2026-04-27 14:11 | 50.53901 | 8.02700 | 17129 ft | 372 kts | 147° |
| 2026-04-27 14:11 | 50.51813 | 8.04993 | 16080 ft | 366 kts | 147° |
| 2026-04-27 14:12 | 50.49732 | 8.07264 | 15104 ft | 361 kts | 147° |
| 2026-04-27 14:12 | 50.47688 | 8.09501 | 14099 ft | 355 kts | 147° |
| 2026-04-27 14:12 | 50.45676 | 8.11715 | 13044 ft | 349 kts | 146° |
| 2026-04-27 14:12 | 50.43695 | 8.13881 | 11982 ft | 344 kts | 146° |
| 2026-04-27 14:13 | 50.41740 | 8.16007 | 10982 ft | 338 kts | 146° |
| 2026-04-27 14:13 | 50.39836 | 8.18090 | 9973 ft | 334 kts | 146° |
| 2026-04-27 14:13 | 50.37938 | 8.20157 | 8883 ft | 329 kts | 146° |
| 2026-04-27 14:13 | 50.36076 | 8.22195 | 7881 ft | 323 kts | 145° |
| 2026-04-27 14:14 | 50.34257 | 8.24156 | 6966 ft | 316 kts | 146° |
| 2026-04-27 14:14 | 50.32507 | 8.26050 | 6533 ft | 293 kts | 145° |
| 2026-04-27 14:14 | 50.30909 | 8.27799 | 6305 ft | 270 kts | 145° |
| 2026-04-27 14:14 | 50.29407 | 8.29419 | 6195 ft | 257 kts | 145° |
| 2026-04-27 14:15 | 50.27925 | 8.31028 | 6232 ft | 263 kts | 145° |
| 2026-04-27 14:15 | 50.26426 | 8.32662 | 6227 ft | 264 kts | 145° |
| 2026-04-27 14:15 | 50.24925 | 8.34289 | 6202 ft | 261 kts | 145° |
| 2026-04-27 14:15 | 50.23439 | 8.35894 | 6228 ft | 258 kts | 144° |
| 2026-04-27 14:16 | 50.21949 | 8.37500 | 6235 ft | 261 kts | 145° |
| 2026-04-27 14:16 | 50.20455 | 8.39065 | 6223 ft | 259 kts | 150° |
| 2026-04-27 14:16 | 50.18799 | 8.40164 | 6242 ft | 257 kts | 161° |
| 2026-04-27 14:16 | 50.17095 | 8.41059 | 6238 ft | 260 kts | 161° |
| 2026-04-27 14:17 | 50.15368 | 8.41988 | 6242 ft | 262 kts | 160° |
| 2026-04-27 14:17 | 50.13642 | 8.42747 | 6208 ft | 258 kts | 175° |
| 2026-04-27 14:17 | 50.11904 | 8.42262 | 6243 ft | 257 kts | 208° |
| 2026-04-27 14:17 | 50.10547 | 8.40470 | 6225 ft | 258 kts | 234° |
| 2026-04-27 14:18 | 50.09686 | 8.38019 | 6220 ft | 258 kts | 248° |
| 2026-04-27 14:18 | 50.09040 | 8.35393 | 6241 ft | 261 kts | 250° |
| 2026-04-27 14:18 | 50.08425 | 8.32737 | 6216 ft | 264 kts | 251° |
| 2026-04-27 14:18 | 50.07799 | 8.30054 | 6244 ft | 261 kts | 250° |
| 2026-04-27 14:19 | 50.07178 | 8.27402 | 6229 ft | 258 kts | 250° |